.
WxDataArchive / Data Records for 2012-07-06
2012-07-05 July 2012 2012-07-07

Data Records for Friday, 06 July 2012

Time	Temp	Chill	HIndex	Humid	Dewpt	 Wind 	HiWind	WindDir	Rain 	Barom 
-----	----	-----	------	-----	-----	------	------	-------	-----	----- 
00:00	77.4	77.4	79.3	75	68.8	0	0	---	0.00	29.898 
00:05	77.2	77.2	79.0	76	69.0	0	0	---	0.00	29.898 
00:10	77.0	77.0	78.7	77	69.2	0	0	---	0.00	29.898 
00:15	77.0	77.0	78.7	77	69.2	0	0	---	0.00	29.898 
00:20	76.8	76.8	78.3	78	69.4	0	0	---	0.00	29.898 
00:25	76.8	76.8	78.3	78	69.4	0	0	---	0.00	29.898 
00:30	76.7	76.7	78.2	78	69.3	0	0	---	0.00	29.897 
00:35	76.7	76.7	78.1	79	69.7	0	0	---	0.00	29.897 
00:40	76.5	76.5	77.8	79	69.5	0	0	---	0.00	29.897 
00:45	76.3	76.3	77.5	79	69.3	0	0	---	0.00	29.897 
00:50	76.1	76.1	77.1	80	69.5	0	0	---	0.00	29.897 
00:55	76.1	76.1	77.1	80	69.5	0	0	---	0.00	29.897 
01:00	76.0	76.0	77.0	80	69.4	0	0	---	0.00	29.895 
01:05	75.8	75.8	76.6	81	69.5	0	0	---	0.00	29.895 
01:10	75.8	75.8	76.6	81	69.5	0	0	---	0.00	29.895 
01:15	75.6	75.6	76.3	81	69.3	0	0	---	0.00	29.891 
01:20	75.4	75.4	76.0	81	69.1	0	0	---	0.00	29.891 
01:25	75.4	75.4	76.0	81	69.1	0	0	---	0.00	29.891 
01:30	75.4	75.4	75.9	82	69.5	0	0	---	0.00	29.889 
01:35	75.3	75.3	75.8	82	69.4	0	0	---	0.00	29.889 
01:40	75.3	75.3	75.8	82	69.4	0	0	---	0.00	29.889 
01:45	75.1	75.1	75.5	82	69.2	0	0	---	0.00	29.889 
01:50	75.1	75.1	75.5	82	69.2	0	0	---	0.00	29.889 
01:55	75.1	75.1	75.3	83	69.6	0	0	---	0.00	29.889 
02:00	75.1	75.1	75.3	83	69.6	0	0	---	0.00	29.886 
02:05	75.1	75.1	75.3	83	69.6	0	0	---	0.00	29.886 
02:10	74.9	74.9	74.9	83	69.4	0	0	---	0.00	29.886 
02:15	74.9	74.9	74.9	83	69.4	0	0	---	0.00	29.888 
02:20	74.9	74.9	74.9	82	69.0	0	0	---	0.00	29.888 
02:25	75.1	75.1	75.5	82	69.2	0	0	---	0.00	29.888 
02:30	75.1	75.1	75.5	82	69.2	0	0	---	0.00	29.886 
02:35	75.3	75.3	75.9	81	69.1	0	0	---	0.00	29.886 
02:40	75.4	75.4	76.0	81	69.1	0	0	---	0.00	29.886 
02:45	75.8	75.8	76.6	81	69.5	0	0	---	0.00	29.882 
02:50	76.0	76.0	77.0	80	69.4	0	0	---	0.00	29.882 
02:55	76.0	76.0	77.0	80	69.4	0	0	---	0.00	29.882 
03:00	76.0	76.0	77.0	80	69.4	0	0	---	0.00	29.882 
03:05	76.0	76.0	77.0	80	69.4	0	0	---	0.00	29.882 
03:10	75.8	75.8	76.7	80	69.2	0	0	---	0.00	29.882 
03:15	75.8	75.8	76.7	80	69.2	0	0	---	0.00	29.883 
03:20	75.8	75.8	76.7	80	69.2	0	0	---	0.00	29.883 
03:25	75.6	75.6	76.5	79	68.6	0	0	---	0.00	29.883 
03:30	75.4	75.4	76.1	80	68.8	0	0	---	0.00	29.887 
03:35	75.3	75.3	76.0	80	68.7	0	0	---	0.00	29.887 
03:40	75.1	75.1	75.7	80	68.5	0	0	---	0.00	29.887 
03:45	75.1	75.1	75.6	81	68.9	0	0	---	0.00	29.890 
03:50	74.9	74.9	74.9	81	68.7	0	0	---	0.00	29.890 
03:55	74.9	74.9	74.9	81	68.7	0	0	---	0.00	29.890 
04:00	74.9	74.9	74.9	81	68.7	0	0	---	0.00	29.893 
04:05	74.7	74.7	74.7	81	68.5	0	0	---	0.00	29.893 
04:10	74.7	74.7	74.7	81	68.5	0	0	---	0.00	29.893 
04:15	74.7	74.7	74.7	81	68.5	0	0	---	0.00	29.893 
04:20	74.6	74.6	74.6	81	68.4	0	0	---	0.00	29.893 
04:25	74.6	74.6	74.6	81	68.4	0	0	---	0.00	29.893 
04:30	74.4	74.4	74.4	81	68.2	0	0	---	0.00	29.893 
04:35	74.4	74.4	74.4	82	68.5	0	0	---	0.00	29.893 
04:40	74.4	74.4	74.4	81	68.2	0	0	---	0.00	29.893 
04:45	74.4	74.4	74.4	81	68.2	0	0	---	0.00	29.896 
04:50	74.4	74.4	74.4	81	68.2	0	0	---	0.00	29.896 
04:55	74.6	74.6	74.6	81	68.4	0	0	---	0.00	29.896 
05:00	74.9	74.9	74.9	80	68.3	0	0	---	0.00	29.896 
05:05	75.1	75.1	75.7	80	68.5	0	0	---	0.00	29.896 
05:10	75.3	75.3	76.0	80	68.7	0	0	---	0.00	29.896 
05:15	75.3	75.3	76.0	80	68.7	0	0	---	0.00	29.898 
05:20	75.3	75.3	76.0	80	68.7	0	0	---	0.00	29.898 
05:25	75.1	75.1	75.7	80	68.5	0	0	---	0.00	29.898 
05:30	75.1	75.1	75.7	80	68.5	0	0	---	0.00	29.901 
05:35	74.9	74.9	74.9	80	68.3	0	0	---	0.00	29.901 
05:40	74.7	74.7	74.7	80	68.1	0	0	---	0.00	29.901 
05:45	74.7	74.7	74.7	81	68.5	0	0	---	0.00	29.905 
05:50	74.6	74.6	74.6	81	68.4	0	0	---	0.00	29.905 
05:55	74.4	74.4	74.4	81	68.2	0	0	---	0.00	29.905 
06:00	74.4	74.4	74.4	82	68.5	0	0	---	0.00	29.911 
06:05	74.2	74.2	74.2	82	68.3	0	0	---	0.00	29.911 
06:10	74.0	74.0	74.0	82	68.1	0	0	---	0.00	29.911 
06:15	74.0	74.0	74.0	82	68.1	0	0	---	0.00	29.925 
06:20	73.9	73.9	73.9	83	68.4	0	0	---	0.00	29.925 
06:25	73.9	73.9	73.9	83	68.4	0	0	---	0.00	29.925 
06:30	73.7	73.7	73.7	83	68.2	0	0	---	0.00	29.929 
06:35	73.7	73.7	73.7	84	68.6	0	0	---	0.00	29.929 
06:40	73.5	73.5	73.5	84	68.4	0	0	---	0.00	29.929 
06:45	73.5	73.5	73.5	84	68.4	0	0	---	0.00	29.930 
06:50	73.5	73.5	73.5	84	68.4	0	0	---	0.00	29.930 
06:55	73.5	73.5	73.5	84	68.4	0	0	---	0.00	29.930 
07:00	73.7	73.7	73.7	85	68.9	0	0	---	0.00	29.930 
07:05	73.9	73.9	73.9	84	68.7	0	0	---	0.00	29.930 
07:10	74.0	74.0	74.0	84	68.8	0	0	---	0.00	29.930 
07:15	74.2	74.2	74.2	84	69.0	0	0	---	0.00	29.926 
07:20	74.4	74.4	74.4	84	69.2	0	0	---	0.00	29.926 
07:25	74.7	74.7	74.7	84	69.5	0	0	---	0.00	29.926 
07:30	75.3	75.3	75.6	83	69.8	0	0	---	0.00	29.934 
07:35	75.8	75.8	76.5	82	69.9	0	0	---	0.00	29.934 
07:40	76.7	76.7	78.1	80	70.0	0	1	112	0.00	29.934 
07:45	77.4	77.4	79.3	78	70.0	0	1	112	0.00	29.937 
07:50	78.1	78.1	80.4	76	69.9	0	2	112	0.00	29.937 
07:55	78.6	78.6	81.1	75	70.0	0	0	---	0.00	29.937 
08:00	79.4	79.4	82.4	74	70.4	0	1	112	0.00	29.936 
08:05	79.9	79.9	83.1	73	70.4	0	2	112	0.00	29.936 
08:10	80.3	80.3	83.7	72	70.4	1	2	112	0.00	29.936 
08:15	80.9	80.9	84.6	71	70.6	0	2	112	0.00	29.942 
08:20	81.2	81.2	85.2	71	70.9	0	1	112	0.00	29.942 
08:25	81.8	81.8	85.9	69	70.6	0	1	112	0.00	29.942 
08:30	82.2	82.2	86.6	69	71.0	0	2	112	0.00	29.943 
08:35	82.8	82.8	87.7	69	71.6	0	1	112	0.00	29.943 
08:40	83.2	83.2	88.0	67	71.1	0	1	112	0.00	29.943 
08:45	83.8	83.8	89.1	67	71.6	0	1	112	0.00	29.935 
08:50	84.1	84.1	89.4	66	71.5	0	1	112	0.00	29.935 
08:55	84.7	84.7	90.3	65	71.6	0	2	112	0.00	29.935 
09:00	85.1	85.1	90.8	64	71.5	0	1	112	0.00	29.935 
09:05	85.5	85.5	91.2	63	71.4	0	2	112	0.00	29.935 
09:10	85.9	85.9	91.6	62	71.3	0	1	112	0.00	29.935 
09:15	86.7	86.7	93.3	62	72.1	0	1	112	0.00	29.934 
09:20	87.6	87.6	94.3	60	72.0	0	2	112	0.00	29.934 
09:25	87.8	87.8	94.3	59	71.7	0	2	112	0.00	29.934 
09:30	88.6	88.6	95.5	58	71.9	0	0	---	0.00	29.935 
09:35	89.3	89.3	96.5	57	72.0	0	1	112	0.00	29.935 
09:40	89.3	89.3	96.0	56	71.5	0	1	112	0.00	29.935 
09:45	89.5	89.5	96.9	57	72.2	0	1	112	0.00	29.933 
09:50	89.9	89.9	97.8	57	72.6	0	1	112	0.00	29.933 
09:55	90.5	90.5	97.5	54	71.5	1	2	112	0.00	29.933 
10:00	90.7	90.7	98.5	55	72.3	0	1	112	0.00	29.930 
10:05	91.4	91.4	98.9	53	71.8	0	1	112	0.00	29.930 
10:10	92.1	92.1	101.1	54	73.0	0	1	112	0.00	29.930 
10:15	92.7	92.7	100.6	51	71.9	0	2	112	0.00	29.931 
10:20	93.6	93.6	102.0	50	72.1	0	1	112	0.00	29.931 
10:25	94.5	94.5	104.0	50	72.9	0	2	112	0.00	29.931 
10:30	95.1	95.1	105.5	50	73.5	0	2	112	0.00	29.929 
10:35	95.4	95.4	104.1	47	71.9	0	2	112	0.00	29.929 
10:40	95.9	95.9	105.2	47	72.4	0	2	112	0.00	29.929 
10:45	96.3	96.3	106.1	47	72.7	1	3	112	0.00	29.927 
10:50	96.3	96.3	105.4	46	72.1	1	3	112	0.00	29.927 
10:55	96.6	96.6	106.1	46	72.4	1	4	112	0.00	29.927 
11:00	96.6	96.6	105.4	45	71.7	1	4	112	0.00	29.927 
11:05	96.8	96.8	105.1	44	71.2	0	2	112	0.00	29.927 
11:10	96.6	96.6	102.7	41	69.0	2	5	112	0.00	29.927 
11:15	96.3	96.3	103.4	43	70.1	2	5	90	0.00	29.929 
11:20	96.3	96.3	104.0	44	70.8	1	3	90	0.00	29.929 
11:25	97.1	97.1	104.4	42	70.1	1	3	90	0.00	29.929 
11:30	97.3	97.3	104.8	42	70.3	2	4	90	0.00	29.931 
11:35	97.3	97.3	104.8	42	70.3	1	2	90	0.00	29.931 
11:40	97.5	97.5	104.6	41	69.8	1	3	90	0.00	29.931 
11:45	97.5	97.5	102.6	38	67.6	2	5	90	0.00	29.932 
11:50	98.2	98.2	103.3	37	67.4	0	2	90	0.00	29.932 
11:55	98.7	98.7	103.6	36	67.0	1	4	90	0.00	29.932 
12:00	99.0	99.0	106.3	39	69.6	0	2	90	0.00	29.930 
12:05	99.0	99.0	107.0	40	70.4	1	3	90	0.00	29.930 
12:10	98.7	98.7	106.4	40	70.1	2	6	90	0.00	29.930 
12:15	98.5	98.5	106.0	40	69.9	0	2	90	0.00	29.931 
12:20	98.7	98.7	105.7	39	69.4	2	5	112	0.00	29.931 
12:25	99.7	99.7	105.6	36	67.9	1	4	112	0.00	29.931 
12:30	99.9	99.9	106.0	36	68.1	1	5	112	0.00	29.930 
12:35	100.2	100.2	105.9	35	67.5	1	4	90	0.00	29.930 
12:40	100.2	100.2	107.4	37	69.2	1	4	90	0.00	29.930 
12:45	100.4	100.4	106.3	35	67.7	1	3	90	0.00	29.927 
12:50	100.7	100.7	107.7	36	68.8	2	5	90	0.00	29.927 
12:55	101.0	101.0	109.1	37	69.9	1	3	112	0.00	29.927 
13:00	100.7	100.7	106.9	35	68.0	1	9	112	0.00	29.926 
13:05	99.9	99.9	106.7	37	68.9	1	3	0	0.00	29.926 
13:10	99.9	99.9	107.5	38	69.7	1	3	0	0.00	29.926 
13:15	99.9	99.9	106.0	36	68.1	2	6	90	0.00	29.927 
13:20	100.2	100.2	106.6	36	68.4	1	3	90	0.00	29.927 
13:25	99.9	99.9	106.0	36	68.1	2	6	90	0.00	29.927 
13:30	99.9	99.9	106.0	36	68.1	1	6	90	0.00	29.927 
13:35	100.2	100.2	105.9	35	67.5	1	4	90	0.00	29.927 
13:40	100.7	100.7	106.9	35	68.0	1	3	90	0.00	29.927 
13:45	100.2	100.2	106.6	36	68.4	1	3	90	0.00	29.926 
13:50	99.4	99.4	106.4	38	69.2	1	3	90	0.00	29.926 
13:55	99.0	99.0	105.6	38	68.9	2	4	90	0.00	29.926 
14:00	98.5	98.5	103.9	37	67.7	2	5	90	0.00	29.924 
14:05	98.5	98.5	105.3	39	69.2	0	2	90	0.00	29.924 
14:10	99.2	99.2	106.0	38	69.1	1	3	158	0.00	29.924 
14:15	99.2	99.2	106.7	39	69.8	2	3	135	0.00	29.920 
14:20	99.4	99.4	106.4	38	69.2	1	4	112	0.00	29.920 
14:25	99.2	99.2	106.0	38	69.1	2	5	45	0.00	29.920 
14:30	98.7	98.7	105.7	39	69.4	2	5	90	0.00	29.915 
14:35	98.0	98.0	104.2	39	68.8	3	6	90	0.00	29.915 
14:40	98.2	98.2	104.6	39	68.9	2	5	90	0.00	29.915 
14:45	98.2	98.2	104.6	39	68.9	2	5	90	0.00	29.911 
14:50	98.0	98.0	104.9	40	69.5	2	5	90	0.00	29.911 
14:55	98.0	98.0	104.2	39	68.8	2	5	90	0.00	29.911 
15:00	98.2	98.2	104.6	39	68.9	2	4	90	0.00	29.911 
15:05	99.2	99.2	106.0	38	69.1	2	7	90	0.00	29.911 
15:10	99.9	99.9	107.5	38	69.7	3	7	90	0.00	29.911 
15:15	99.9	99.9	106.0	36	68.1	3	5	68	0.00	29.910 
15:20	99.4	99.4	107.2	39	70.0	3	6	90	0.00	29.910 
15:25	99.2	99.2	106.0	38	69.1	2	4	90	0.00	29.910 
15:30	99.0	99.0	105.6	38	68.9	1	4	112	0.00	29.905 
15:35	99.4	99.4	107.2	39	70.0	2	6	112	0.00	29.905 
15:40	99.9	99.9	107.5	38	69.7	2	5	90	0.00	29.905 
15:45	101.0	101.0	108.3	36	69.1	1	3	112	0.00	29.897 
15:50	101.7	101.7	108.2	34	68.0	1	5	112	0.00	29.897 
15:55	101.7	101.7	109.0	35	68.8	1	4	248	0.00	29.897 
16:00	101.5	101.5	108.6	35	68.7	2	4	270	0.00	29.899 
16:05	101.0	101.0	107.5	35	68.2	2	4	292	0.00	29.899 
16:10	101.2	101.2	107.9	35	68.4	1	4	270	0.00	29.899 
16:15	101.7	101.7	107.4	33	67.1	1	3	315	0.00	29.894 
16:20	101.5	101.5	108.6	35	68.7	2	5	68	0.00	29.894 
16:25	101.7	101.7	108.2	34	68.0	1	5	112	0.00	29.894 
16:30	102.0	102.0	108.8	34	68.3	1	2	112	0.00	29.893 
16:35	102.0	102.0	109.6	35	69.1	1	4	270	0.00	29.893 
16:40	102.0	102.0	108.0	33	67.4	1	6	270	0.00	29.893 
16:45	101.0	101.0	106.8	34	67.4	1	3	270	0.00	29.895 
16:50	100.7	100.7	106.9	35	68.0	1	4	270	0.00	29.895 
16:55	100.7	100.7	106.9	35	68.0	1	3	270	0.00	29.895 
17:00	101.0	101.0	107.5	35	68.2	1	3	270	0.00	29.892 
17:05	101.2	101.2	107.9	35	68.4	1	4	270	0.00	29.892 
17:10	101.2	101.2	108.7	36	69.2	1	3	270	0.00	29.892 
17:15	101.2	101.2	107.9	35	68.4	2	4	270	0.00	29.883 
17:20	101.5	101.5	108.6	35	68.7	0	2	270	0.00	29.883 
17:25	101.7	101.7	109.0	35	68.8	1	2	270	0.00	29.883 
17:30	101.7	101.7	108.2	34	68.0	1	2	270	0.00	29.881 
17:35	101.2	101.2	107.9	35	68.4	0	2	270	0.00	29.881 
17:40	100.4	100.4	107.0	36	68.5	0	2	270	0.00	29.881 
17:45	99.7	99.7	106.3	37	68.7	0	1	270	0.00	29.881 
17:50	99.0	99.0	105.6	38	68.9	0	4	112	0.00	29.881 
17:55	98.5	98.5	105.3	39	69.2	0	1	112	0.00	29.881 
18:00	98.2	98.2	104.6	39	68.9	0	2	112	0.00	29.877 
18:05	98.0	98.0	104.2	39	68.8	0	2	112	0.00	29.877 
18:10	98.0	98.0	104.9	40	69.5	1	3	112	0.00	29.877 
18:15	98.2	98.2	105.3	40	69.7	1	3	112	0.00	29.869 
18:20	98.2	98.2	104.6	39	68.9	1	3	270	0.00	29.869 
18:25	98.5	98.5	105.3	39	69.2	1	3	270	0.00	29.869 
18:30	98.7	98.7	105.7	39	69.4	1	3	270	0.00	29.871 
18:35	98.5	98.5	104.6	38	68.4	1	4	292	0.00	29.871 
18:40	98.5	98.5	104.6	38	68.4	1	3	225	0.00	29.871 
18:45	98.5	98.5	105.3	39	69.2	1	3	225	0.00	29.872 
18:50	98.5	98.5	105.3	39	69.2	0	2	225	0.00	29.872 
18:55	98.5	98.5	105.3	39	69.2	1	4	90	0.00	29.872 
19:00	98.5	98.5	105.3	39	69.2	0	2	90	0.00	29.870 
19:05	98.5	98.5	105.3	39	69.2	0	2	90	0.00	29.870 
19:10	98.2	98.2	104.6	39	68.9	0	2	90	0.00	29.870 
19:15	98.0	98.0	104.2	39	68.8	0	2	90	0.00	29.866 
19:20	97.5	97.5	103.2	39	68.3	0	1	90	0.00	29.866 
19:25	97.3	97.3	103.5	40	68.9	0	0	---	0.00	29.866 
19:30	97.1	97.1	103.7	41	69.4	0	0	---	0.00	29.870 
19:35	96.6	96.6	103.3	42	69.7	0	0	---	0.00	29.870 
19:40	96.3	96.3	103.4	43	70.1	0	1	90	0.00	29.870 
19:45	95.9	95.9	102.5	43	69.7	0	1	90	0.00	29.867 
19:50	95.6	95.6	101.9	43	69.5	0	1	90	0.00	29.867 
19:55	95.4	95.4	101.5	43	69.3	0	0	---	0.00	29.867 
20:00	95.1	95.1	101.5	44	69.7	0	0	---	0.00	29.870 
20:05	94.9	94.9	101.7	45	70.2	0	0	---	0.00	29.870 
20:10	94.7	94.7	101.3	45	70.0	0	0	---	0.00	29.870 
20:15	94.5	94.5	100.9	45	69.8	0	0	---	0.00	29.865 
20:20	94.3	94.3	101.0	46	70.3	0	0	---	0.00	29.865 
20:25	94.3	94.3	101.0	46	70.3	0	0	---	0.00	29.865 
20:30	94.0	94.0	100.4	46	70.0	0	0	---	0.00	29.868 
20:35	93.8	93.8	100.0	46	69.8	0	0	---	0.00	29.868 
20:40	93.6	93.6	99.6	46	69.7	0	1	90	0.00	29.868 
20:45	93.6	93.6	99.6	46	69.7	0	1	90	0.00	29.872 
20:50	93.6	93.6	99.6	46	69.7	0	1	90	0.00	29.872 
20:55	93.6	93.6	98.5	44	68.4	0	1	90	0.00	29.872 
21:00	93.6	93.6	98.0	43	67.7	0	1	90	0.00	29.874 
21:05	93.6	93.6	98.0	43	67.7	0	1	90	0.00	29.874 
21:10	93.4	93.4	97.6	43	67.5	0	1	90	0.00	29.874 
21:15	93.4	93.4	97.6	43	67.5	0	1	90	0.00	29.872 
21:20	93.2	93.2	97.7	44	68.0	0	1	90	0.00	29.872 
21:25	92.9	92.9	97.7	45	68.4	0	0	---	0.00	29.872 
21:30	92.7	92.7	97.8	46	68.8	0	1	90	0.00	29.873 
21:35	92.3	92.3	97.0	46	68.5	0	0	---	0.00	29.873 
21:40	91.8	91.8	96.6	47	68.7	0	0	---	0.00	29.873 
21:45	91.4	91.4	96.3	48	68.9	0	0	---	0.00	29.880 
21:50	91.2	91.2	96.4	49	69.3	0	0	---	0.00	29.880 
21:55	90.7	90.7	95.9	50	69.5	0	0	---	0.00	29.880 
22:00	90.5	90.5	96.0	51	69.9	0	0	---	0.00	29.889 
22:05	90.3	90.3	96.1	52	70.2	0	0	---	0.00	29.889 
22:10	89.9	89.9	95.8	53	70.4	0	0	---	0.00	29.889 
22:15	89.9	89.9	96.3	54	71.0	0	0	---	0.00	29.886 
22:20	89.7	89.7	95.9	54	70.8	0	0	---	0.00	29.886 
22:25	89.7	89.7	96.4	55	71.3	0	1	90	0.00	29.886 
22:30	89.7	89.7	96.9	56	71.9	0	0	---	0.00	29.887 
22:35	89.5	89.5	96.4	56	71.7	0	0	---	0.00	29.887 
22:40	89.5	89.5	96.9	57	72.2	0	0	---	0.00	29.887 
22:45	89.3	89.3	96.5	57	72.0	0	1	90	0.00	29.887 
22:50	89.3	89.3	97.0	58	72.5	0	0	---	0.00	29.887 
22:55	89.0	89.0	96.4	58	72.3	0	0	---	0.00	29.887 
23:00	89.0	89.0	96.4	58	72.3	0	1	90	0.00	29.888 
23:05	88.8	88.8	96.4	59	72.6	0	0	---	0.00	29.888 
23:10	88.8	88.8	96.4	59	72.6	0	1	90	0.00	29.888 
23:15	88.6	88.6	96.5	60	72.9	0	1	90	0.00	29.885 
23:20	88.8	88.8	96.4	59	72.6	0	2	90	0.00	29.885 
23:25	88.8	88.8	96.4	59	72.6	0	2	90	0.00	29.885 
23:30	88.8	88.8	96.4	59	72.6	0	1	90	0.00	29.884 
23:35	88.8	88.8	96.4	59	72.6	0	1	90	0.00	29.884 
23:40	88.8	88.8	96.4	59	72.6	0	1	90	0.00	29.884 
23:45	89.0	89.0	96.8	59	72.8	0	2	90	0.00	29.884 
23:50	89.0	89.0	96.8	59	72.8	0	1	90	0.00	29.884 
23:55	88.8	88.8	96.4	59	72.6	0	1	90	0.00	29.884 

CoCoRaHS
IN-AL-39
A2 Web Hosting
Creative Commons License
GoDaddy
search engine by freefind advanced

loaded 2018-11-15 05:06:07 • last modified 2010-11-18 10:43:29
Privacy PolicyDisclaimer
• wx.awcolley.com is powered by PmWiki v.2002016 •
• all content (unless otherwise noted) © 2018 A W Colley